sensor_id;sensor_type;location;lat;lon;timestamp;temperature;humidity
32865;DHT22;19219;44.500;11.188;2024-03-08T00:01:49;6.10;99.90
32865;DHT22;19219;44.500;11.188;2024-03-08T00:04:15;6.00;99.90
32865;DHT22;19219;44.500;11.188;2024-03-08T00:06:41;6.10;99.90
32865;DHT22;19219;44.500;11.188;2024-03-08T00:09:07;6.00;99.90
32865;DHT22;19219;44.500;11.188;2024-03-08T00:11:34;6.00;99.90
32865;DHT22;19219;44.500;11.188;2024-03-08T00:14:00;6.00;99.90
32865;DHT22;19219;44.500;11.188;2024-03-08T00:16:26;6.00;99.90
32865;DHT22;19219;44.500;11.188;2024-03-08T00:18:51;6.00;99.90
32865;DHT22;19219;44.500;11.188;2024-03-08T00:21:17;6.00;99.90
32865;DHT22;19219;44.500;11.188;2024-03-08T00:23:43;5.80;99.90
32865;DHT22;19219;44.500;11.188;2024-03-08T00:26:08;5.70;99.90
32865;DHT22;19219;44.500;11.188;2024-03-08T00:28:34;5.70;99.90
32865;DHT22;19219;44.500;11.188;2024-03-08T00:31:00;5.70;99.90
32865;DHT22;19219;44.500;11.188;2024-03-08T00:33:26;5.80;99.90
32865;DHT22;19219;44.500;11.188;2024-03-08T00:35:53;5.90;99.90
32865;DHT22;19219;44.500;11.188;2024-03-08T00:38:19;5.80;99.90
32865;DHT22;19219;44.500;11.188;2024-03-08T00:40:45;5.90;99.90
32865;DHT22;19219;44.500;11.188;2024-03-08T00:43:10;5.80;99.90
32865;DHT22;19219;44.500;11.188;2024-03-08T00:45:36;5.80;99.90
32865;DHT22;19219;44.500;11.188;2024-03-08T00:48:03;5.80;99.90
32865;DHT22;19219;44.500;11.188;2024-03-08T00:50:29;5.70;99.90
32865;DHT22;19219;44.500;11.188;2024-03-08T00:52:55;5.70;99.90
32865;DHT22;19219;44.500;11.188;2024-03-08T00:55:21;5.60;99.90
32865;DHT22;19219;44.500;11.188;2024-03-08T00:57:47;5.60;99.90
32865;DHT22;19219;44.500;11.188;2024-03-08T01:00:13;5.80;99.90
32865;DHT22;19219;44.500;11.188;2024-03-08T01:02:39;5.80;99.90
32865;DHT22;19219;44.500;11.188;2024-03-08T01:05:05;5.90;99.90
32865;DHT22;19219;44.500;11.188;2024-03-08T01:07:34;6.00;99.90
32865;DHT22;19219;44.500;11.188;2024-03-08T01:10:01;6.00;99.90
32865;DHT22;19219;44.500;11.188;2024-03-08T01:12:26;6.10;99.90
32865;DHT22;19219;44.500;11.188;2024-03-08T01:14:52;6.20;99.90
32865;DHT22;19219;44.500;11.188;2024-03-08T01:17:18;6.20;99.90
32865;DHT22;19219;44.500;11.188;2024-03-08T01:19:43;6.30;99.90
32865;DHT22;19219;44.500;11.188;2024-03-08T01:22:10;6.30;99.90
32865;DHT22;19219;44.500;11.188;2024-03-08T01:24:36;6.10;99.90
32865;DHT22;19219;44.500;11.188;2024-03-08T01:27:02;5.90;99.90
32865;DHT22;19219;44.500;11.188;2024-03-08T01:29:28;5.90;99.90
32865;DHT22;19219;44.500;11.188;2024-03-08T01:31:55;5.90;99.90
32865;DHT22;19219;44.500;11.188;2024-03-08T01:34:22;5.90;99.90
32865;DHT22;19219;44.500;11.188;2024-03-08T01:36:48;5.90;99.90
32865;DHT22;19219;44.500;11.188;2024-03-08T01:39:14;5.70;99.90
32865;DHT22;19219;44.500;11.188;2024-03-08T01:41:40;5.50;99.90
32865;DHT22;19219;44.500;11.188;2024-03-08T01:44:06;5.50;99.90
32865;DHT22;19219;44.500;11.188;2024-03-08T01:46:33;5.50;99.90
32865;DHT22;19219;44.500;11.188;2024-03-08T01:49:00;5.40;99.90
32865;DHT22;19219;44.500;11.188;2024-03-08T01:51:26;5.30;99.90
32865;DHT22;19219;44.500;11.188;2024-03-08T01:53:55;5.30;99.90
32865;DHT22;19219;44.500;11.188;2024-03-08T01:56:21;5.10;99.90
32865;DHT22;19219;44.500;11.188;2024-03-08T01:58:47;5.00;99.90
32865;DHT22;19219;44.500;11.188;2024-03-08T02:01:13;5.00;99.90
32865;DHT22;19219;44.500;11.188;2024-03-08T02:03:42;5.00;99.90
32865;DHT22;19219;44.500;11.188;2024-03-08T02:06:11;5.00;99.90
32865;DHT22;19219;44.500;11.188;2024-03-08T02:08:37;4.90;99.90
32865;DHT22;19219;44.500;11.188;2024-03-08T02:11:04;4.80;99.90
32865;DHT22;19219;44.500;11.188;2024-03-08T02:13:30;4.80;99.90
32865;DHT22;19219;44.500;11.188;2024-03-08T02:16:00;4.90;99.90
32865;DHT22;19219;44.500;11.188;2024-03-08T02:18:27;4.90;99.90
32865;DHT22;19219;44.500;11.188;2024-03-08T02:20:54;4.80;99.90
32865;DHT22;19219;44.500;11.188;2024-03-08T02:23:20;4.80;99.90
32865;DHT22;19219;44.500;11.188;2024-03-08T02:25:46;4.80;99.90
32865;DHT22;19219;44.500;11.188;2024-03-08T02:28:12;4.70;99.90
32865;DHT22;19219;44.500;11.188;2024-03-08T02:30:38;4.70;99.90
32865;DHT22;19219;44.500;11.188;2024-03-08T02:33:07;4.70;99.90
32865;DHT22;19219;44.500;11.188;2024-03-08T02:35:35;4.60;99.90
32865;DHT22;19219;44.500;11.188;2024-03-08T02:38:01;4.60;99.90
32865;DHT22;19219;44.500;11.188;2024-03-08T02:40:29;4.70;99.90
32865;DHT22;19219;44.500;11.188;2024-03-08T02:42:54;4.70;99.90
32865;DHT22;19219;44.500;11.188;2024-03-08T02:45:20;4.70;99.90
32865;DHT22;19219;44.500;11.188;2024-03-08T02:47:46;4.70;99.90
32865;DHT22;19219;44.500;11.188;2024-03-08T02:50:12;4.80;99.90
32865;DHT22;19219;44.500;11.188;2024-03-08T02:52:44;4.70;99.90
32865;DHT22;19219;44.500;11.188;2024-03-08T02:55:11;4.70;99.90
32865;DHT22;19219;44.500;11.188;2024-03-08T02:57:40;4.60;99.90
32865;DHT22;19219;44.500;11.188;2024-03-08T03:00:07;4.70;99.90
32865;DHT22;19219;44.500;11.188;2024-03-08T03:02:34;4.70;99.90
32865;DHT22;19219;44.500;11.188;2024-03-08T03:05:00;4.80;99.90
32865;DHT22;19219;44.500;11.188;2024-03-08T03:07:30;4.70;99.90
32865;DHT22;19219;44.500;11.188;2024-03-08T03:09:56;4.50;99.90
32865;DHT22;19219;44.500;11.188;2024-03-08T03:12:22;4.50;99.90
32865;DHT22;19219;44.500;11.188;2024-03-08T03:14:48;4.30;99.90
32865;DHT22;19219;44.500;11.188;2024-03-08T03:17:13;4.30;99.90
32865;DHT22;19219;44.500;11.188;2024-03-08T03:19:42;4.30;99.90
32865;DHT22;19219;44.500;11.188;2024-03-08T03:22:08;4.40;99.90
32865;DHT22;19219;44.500;11.188;2024-03-08T03:24:36;4.30;99.90
32865;DHT22;19219;44.500;11.188;2024-03-08T03:27:04;4.40;99.90
32865;DHT22;19219;44.500;11.188;2024-03-08T03:29:37;4.30;99.90
32865;DHT22;19219;44.500;11.188;2024-03-08T03:32:02;4.40;99.90
32865;DHT22;19219;44.500;11.188;2024-03-08T03:34:29;4.40;99.90
32865;DHT22;19219;44.500;11.188;2024-03-08T03:36:55;4.30;99.90
32865;DHT22;19219;44.500;11.188;2024-03-08T03:39:22;4.30;99.90
32865;DHT22;19219;44.500;11.188;2024-03-08T03:41:48;4.40;99.90
32865;DHT22;19219;44.500;11.188;2024-03-08T03:44:17;4.50;99.90
32865;DHT22;19219;44.500;11.188;2024-03-08T03:46:43;4.50;99.90
32865;DHT22;19219;44.500;11.188;2024-03-08T03:49:12;4.30;99.90
32865;DHT22;19219;44.500;11.188;2024-03-08T03:51:38;4.20;99.90
32865;DHT22;19219;44.500;11.188;2024-03-08T03:54:03;4.20;99.90
32865;DHT22;19219;44.500;11.188;2024-03-08T03:56:29;4.20;99.90
32865;DHT22;19219;44.500;11.188;2024-03-08T03:58:56;4.20;99.90
32865;DHT22;19219;44.500;11.188;2024-03-08T04:01:22;4.40;99.90
32865;DHT22;19219;44.500;11.188;2024-03-08T04:03:47;4.40;99.90
32865;DHT22;19219;44.500;11.188;2024-03-08T04:06:13;4.40;99.90
32865;DHT22;19219;44.500;11.188;2024-03-08T04:08:40;4.40;99.90
32865;DHT22;19219;44.500;11.188;2024-03-08T04:11:06;4.30;99.90
32865;DHT22;19219;44.500;11.188;2024-03-08T04:13:31;4.30;99.90
32865;DHT22;19219;44.500;11.188;2024-03-08T04:15:57;4.30;99.90
32865;DHT22;19219;44.500;11.188;2024-03-08T04:18:22;4.30;99.90
32865;DHT22;19219;44.500;11.188;2024-03-08T04:20:48;4.20;99.90
32865;DHT22;19219;44.500;11.188;2024-03-08T04:23:14;4.20;99.90
32865;DHT22;19219;44.500;11.188;2024-03-08T04:25:41;4.20;99.90
32865;DHT22;19219;44.500;11.188;2024-03-08T04:28:08;4.00;99.90
32865;DHT22;19219;44.500;11.188;2024-03-08T04:30:35;4.00;99.90
32865;DHT22;19219;44.500;11.188;2024-03-08T04:33:02;4.00;99.90
32865;DHT22;19219;44.500;11.188;2024-03-08T04:35:29;3.90;99.90
32865;DHT22;19219;44.500;11.188;2024-03-08T04:37:55;3.90;99.90
32865;DHT22;19219;44.500;11.188;2024-03-08T04:40:23;3.80;99.90
32865;DHT22;19219;44.500;11.188;2024-03-08T04:42:48;3.80;99.90
32865;DHT22;19219;44.500;11.188;2024-03-08T04:45:17;3.80;99.90
32865;DHT22;19219;44.500;11.188;2024-03-08T04:47:43;3.80;99.90
32865;DHT22;19219;44.500;11.188;2024-03-08T04:50:09;3.80;99.90
32865;DHT22;19219;44.500;11.188;2024-03-08T04:52:35;3.90;99.90
32865;DHT22;19219;44.500;11.188;2024-03-08T04:55:01;3.90;99.90
32865;DHT22;19219;44.500;11.188;2024-03-08T04:57:29;4.00;99.90
32865;DHT22;19219;44.500;11.188;2024-03-08T04:59:55;4.20;99.90
32865;DHT22;19219;44.500;11.188;2024-03-08T05:02:21;4.30;99.90
32865;DHT22;19219;44.500;11.188;2024-03-08T05:04:48;4.30;99.90
32865;DHT22;19219;44.500;11.188;2024-03-08T05:07:14;4.40;99.90
32865;DHT22;19219;44.500;11.188;2024-03-08T05:09:39;4.30;99.90
32865;DHT22;19219;44.500;11.188;2024-03-08T05:12:06;4.20;99.90
32865;DHT22;19219;44.500;11.188;2024-03-08T05:14:33;4.00;99.90
32865;DHT22;19219;44.500;11.188;2024-03-08T05:17:00;3.90;99.90
32865;DHT22;19219;44.500;11.188;2024-03-08T05:19:26;3.90;99.90
32865;DHT22;19219;44.500;11.188;2024-03-08T05:21:52;3.90;99.90
32865;DHT22;19219;44.500;11.188;2024-03-08T05:24:18;3.90;99.90
32865;DHT22;19219;44.500;11.188;2024-03-08T05:26:44;3.70;99.90
32865;DHT22;19219;44.500;11.188;2024-03-08T05:29:10;3.70;99.90
32865;DHT22;19219;44.500;11.188;2024-03-08T05:31:56;3.60;99.90
32865;DHT22;19219;44.500;11.188;2024-03-08T05:34:23;3.60;99.90
32865;DHT22;19219;44.500;11.188;2024-03-08T05:36:50;3.60;99.90
32865;DHT22;19219;44.500;11.188;2024-03-08T05:39:17;3.50;99.90
32865;DHT22;19219;44.500;11.188;2024-03-08T05:41:43;3.50;99.90
32865;DHT22;19219;44.500;11.188;2024-03-08T05:44:10;3.60;99.90
32865;DHT22;19219;44.500;11.188;2024-03-08T05:46:36;3.50;99.90
32865;DHT22;19219;44.500;11.188;2024-03-08T05:49:03;3.60;99.90
32865;DHT22;19219;44.500;11.188;2024-03-08T05:51:34;3.70;99.90
32865;DHT22;19219;44.500;11.188;2024-03-08T05:54:07;3.70;99.90
32865;DHT22;19219;44.500;11.188;2024-03-08T05:56:36;3.70;99.90
32865;DHT22;19219;44.500;11.188;2024-03-08T05:59:02;3.70;99.90
32865;DHT22;19219;44.500;11.188;2024-03-08T06:01:29;3.60;99.90
32865;DHT22;19219;44.500;11.188;2024-03-08T06:03:55;3.60;99.90
32865;DHT22;19219;44.500;11.188;2024-03-08T06:06:24;3.70;99.90
32865;DHT22;19219;44.500;11.188;2024-03-08T06:08:51;3.80;99.90
32865;DHT22;19219;44.500;11.188;2024-03-08T06:11:18;3.70;99.90
32865;DHT22;19219;44.500;11.188;2024-03-08T06:13:44;3.60;99.90
32865;DHT22;19219;44.500;11.188;2024-03-08T06:16:10;3.80;99.90
32865;DHT22;19219;44.500;11.188;2024-03-08T06:18:37;4.00;99.90
32865;DHT22;19219;44.500;11.188;2024-03-08T06:21:04;4.10;99.90
32865;DHT22;19219;44.500;11.188;2024-03-08T06:23:33;4.20;99.90
32865;DHT22;19219;44.500;11.188;2024-03-08T06:25:58;4.20;99.90
32865;DHT22;19219;44.500;11.188;2024-03-08T06:28:24;4.30;99.90
32865;DHT22;19219;44.500;11.188;2024-03-08T06:30:50;4.50;99.90
32865;DHT22;19219;44.500;11.188;2024-03-08T06:33:17;4.50;99.90
32865;DHT22;19219;44.500;11.188;2024-03-08T06:35:43;4.50;99.90
32865;DHT22;19219;44.500;11.188;2024-03-08T06:38:09;4.50;99.90
32865;DHT22;19219;44.500;11.188;2024-03-08T06:40:34;4.70;99.90
32865;DHT22;19219;44.500;11.188;2024-03-08T06:43:00;4.80;99.90
32865;DHT22;19219;44.500;11.188;2024-03-08T06:45:26;5.00;99.90
32865;DHT22;19219;44.500;11.188;2024-03-08T06:47:51;5.20;99.90
32865;DHT22;19219;44.500;11.188;2024-03-08T06:50:17;5.40;99.90
32865;DHT22;19219;44.500;11.188;2024-03-08T06:52:43;5.70;99.90
32865;DHT22;19219;44.500;11.188;2024-03-08T06:55:10;6.10;99.90
32865;DHT22;19219;44.500;11.188;2024-03-08T06:57:39;6.50;99.90
32865;DHT22;19219;44.500;11.188;2024-03-08T07:00:09;6.80;99.90
32865;DHT22;19219;44.500;11.188;2024-03-08T07:02:36;7.30;99.90
32865;DHT22;19219;44.500;11.188;2024-03-08T07:05:02;7.60;99.90
32865;DHT22;19219;44.500;11.188;2024-03-08T07:07:29;7.90;99.90
32865;DHT22;19219;44.500;11.188;2024-03-08T07:09:57;8.20;99.90
32865;DHT22;19219;44.500;11.188;2024-03-08T07:12:23;8.70;99.90
32865;DHT22;19219;44.500;11.188;2024-03-08T07:14:49;9.10;99.90
32865;DHT22;19219;44.500;11.188;2024-03-08T07:17:15;9.90;99.90
32865;DHT22;19219;44.500;11.188;2024-03-08T07:19:42;11.40;99.90
32865;DHT22;19219;44.500;11.188;2024-03-08T07:22:07;12.90;99.90
32865;DHT22;19219;44.500;11.188;2024-03-08T07:24:36;14.40;99.90
32865;DHT22;19219;44.500;11.188;2024-03-08T07:27:05;15.30;99.90
32865;DHT22;19219;44.500;11.188;2024-03-08T07:29:33;16.00;99.90
32865;DHT22;19219;44.500;11.188;2024-03-08T07:32:00;16.20;99.90
32865;DHT22;19219;44.500;11.188;2024-03-08T07:34:26;16.10;99.30
32865;DHT22;19219;44.500;11.188;2024-03-08T07:36:52;16.20;99.10
32865;DHT22;19219;44.500;11.188;2024-03-08T07:39:17;16.10;98.50
32865;DHT22;19219;44.500;11.188;2024-03-08T07:41:44;16.70;98.30
32865;DHT22;19219;44.500;11.188;2024-03-08T07:44:10;17.80;96.30
32865;DHT22;19219;44.500;11.188;2024-03-08T07:46:35;19.10;93.70
32865;DHT22;19219;44.500;11.188;2024-03-08T07:49:02;19.60;91.10
32865;DHT22;19219;44.500;11.188;2024-03-08T07:51:28;20.50;87.40
32865;DHT22;19219;44.500;11.188;2024-03-08T07:53:54;19.80;84.60
32865;DHT22;19219;44.500;11.188;2024-03-08T07:56:20;20.00;83.50
32865;DHT22;19219;44.500;11.188;2024-03-08T07:58:47;20.80;80.20
32865;DHT22;19219;44.500;11.188;2024-03-08T08:01:20;20.60;78.20
32865;DHT22;19219;44.500;11.188;2024-03-08T08:03:46;19.90;80.10
32865;DHT22;19219;44.500;11.188;2024-03-08T08:06:15;20.50;80.50
32865;DHT22;19219;44.500;11.188;2024-03-08T08:08:44;20.80;79.20
32865;DHT22;19219;44.500;11.188;2024-03-08T08:11:10;21.10;78.40
32865;DHT22;19219;44.500;11.188;2024-03-08T08:13:37;21.40;77.40
32865;DHT22;19219;44.500;11.188;2024-03-08T08:16:03;22.20;75.70
32865;DHT22;19219;44.500;11.188;2024-03-08T08:18:31;22.80;72.70
32865;DHT22;19219;44.500;11.188;2024-03-08T08:20:58;23.10;70.40
32865;DHT22;19219;44.500;11.188;2024-03-08T08:23:25;23.00;69.50
32865;DHT22;19219;44.500;11.188;2024-03-08T08:25:51;23.50;68.30
32865;DHT22;19219;44.500;11.188;2024-03-08T08:28:17;23.70;66.30
32865;DHT22;19219;44.500;11.188;2024-03-08T08:30:44;23.10;67.00
32865;DHT22;19219;44.500;11.188;2024-03-08T08:33:10;23.20;66.60
32865;DHT22;19219;44.500;11.188;2024-03-08T08:35:37;23.70;66.50
32865;DHT22;19219;44.500;11.188;2024-03-08T08:38:05;23.70;65.20
32865;DHT22;19219;44.500;11.188;2024-03-08T08:40:35;23.80;64.30
32865;DHT22;19219;44.500;11.188;2024-03-08T08:43:04;24.00;64.00
32865;DHT22;19219;44.500;11.188;2024-03-08T08:45:30;24.60;63.40
32865;DHT22;19219;44.500;11.188;2024-03-08T08:47:56;24.50;62.60
32865;DHT22;19219;44.500;11.188;2024-03-08T08:50:22;25.00;62.40
32865;DHT22;19219;44.500;11.188;2024-03-08T08:52:49;25.50;61.20
32865;DHT22;19219;44.500;11.188;2024-03-08T08:55:14;25.20;59.60
32865;DHT22;19219;44.500;11.188;2024-03-08T08:57:41;24.80;60.00
32865;DHT22;19219;44.500;11.188;2024-03-08T09:00:07;24.60;60.40
32865;DHT22;19219;44.500;11.188;2024-03-08T09:02:36;25.30;60.50
32865;DHT22;19219;44.500;11.188;2024-03-08T09:05:03;25.40;59.90
32865;DHT22;19219;44.500;11.188;2024-03-08T09:07:29;25.70;58.80
32865;DHT22;19219;44.500;11.188;2024-03-08T09:09:55;25.30;58.40
32865;DHT22;19219;44.500;11.188;2024-03-08T09:12:24;24.70;59.30
32865;DHT22;19219;44.500;11.188;2024-03-08T09:14:50;24.60;60.40
32865;DHT22;19219;44.500;11.188;2024-03-08T09:17:15;24.50;61.10
32865;DHT22;19219;44.500;11.188;2024-03-08T09:19:48;24.80;60.30
32865;DHT22;19219;44.500;11.188;2024-03-08T09:22:14;24.80;60.90
32865;DHT22;19219;44.500;11.188;2024-03-08T09:24:39;25.20;59.20
32865;DHT22;19219;44.500;11.188;2024-03-08T09:27:06;25.10;58.20
32865;DHT22;19219;44.500;11.188;2024-03-08T09:29:31;24.70;59.20
32865;DHT22;19219;44.500;11.188;2024-03-08T09:31:57;24.50;59.00
32865;DHT22;19219;44.500;11.188;2024-03-08T09:34:23;24.90;58.40
32865;DHT22;19219;44.500;11.188;2024-03-08T09:36:49;24.60;58.80
32865;DHT22;19219;44.500;11.188;2024-03-08T09:39:16;24.50;58.30
32865;DHT22;19219;44.500;11.188;2024-03-08T09:41:45;24.90;57.10
32865;DHT22;19219;44.500;11.188;2024-03-08T09:44:14;25.00;56.90
32865;DHT22;19219;44.500;11.188;2024-03-08T09:46:40;25.20;57.00
32865;DHT22;19219;44.500;11.188;2024-03-08T09:49:06;25.50;57.70
32865;DHT22;19219;44.500;11.188;2024-03-08T09:51:34;25.40;57.80
32865;DHT22;19219;44.500;11.188;2024-03-08T09:54:02;25.50;58.30
32865;DHT22;19219;44.500;11.188;2024-03-08T09:56:35;25.30;57.40
32865;DHT22;19219;44.500;11.188;2024-03-08T09:59:01;25.30;58.80
32865;DHT22;19219;44.500;11.188;2024-03-08T10:01:33;25.60;56.80
32865;DHT22;19219;44.500;11.188;2024-03-08T10:03:59;25.20;55.20
32865;DHT22;19219;44.500;11.188;2024-03-08T10:06:24;25.30;54.00
32865;DHT22;19219;44.500;11.188;2024-03-08T10:08:51;24.80;55.30
32865;DHT22;19219;44.500;11.188;2024-03-08T10:11:20;24.90;55.30
32865;DHT22;19219;44.500;11.188;2024-03-08T10:13:48;24.80;56.00
32865;DHT22;19219;44.500;11.188;2024-03-08T10:16:13;25.00;56.10
32865;DHT22;19219;44.500;11.188;2024-03-08T10:18:39;24.70;55.90
32865;DHT22;19219;44.500;11.188;2024-03-08T10:21:08;24.20;57.70
32865;DHT22;19219;44.500;11.188;2024-03-08T10:23:36;23.40;59.40
32865;DHT22;19219;44.500;11.188;2024-03-08T10:26:18;22.70;60.70
32865;DHT22;19219;44.500;11.188;2024-03-08T10:28:47;21.70;61.90
32865;DHT22;19219;44.500;11.188;2024-03-08T10:31:16;21.00;65.70
32865;DHT22;19219;44.500;11.188;2024-03-08T10:33:42;20.70;64.90
32865;DHT22;19219;44.500;11.188;2024-03-08T10:36:08;20.20;65.80
32865;DHT22;19219;44.500;11.188;2024-03-08T10:38:38;19.70;66.10
32865;DHT22;19219;44.500;11.188;2024-03-08T10:41:08;19.30;69.40
32865;DHT22;19219;44.500;11.188;2024-03-08T10:46:46;18.40;74.00
32865;DHT22;19219;44.500;11.188;2024-03-08T10:49:17;18.40;77.40
32865;DHT22;19219;44.500;11.188;2024-03-08T10:51:44;18.50;79.20
32865;DHT22;19219;44.500;11.188;2024-03-08T10:54:10;18.60;79.90
32865;DHT22;19219;44.500;11.188;2024-03-08T10:56:37;18.30;82.00
32865;DHT22;19219;44.500;11.188;2024-03-08T10:59:03;17.80;82.30
32865;DHT22;19219;44.500;11.188;2024-03-08T11:01:30;17.30;83.80
32865;DHT22;19219;44.500;11.188;2024-03-08T11:03:56;17.40;84.40
32865;DHT22;19219;44.500;11.188;2024-03-08T11:06:42;17.10;86.40
32865;DHT22;19219;44.500;11.188;2024-03-08T11:09:34;17.00;90.00
32865;DHT22;19219;44.500;11.188;2024-03-08T11:12:23;16.70;92.30
32865;DHT22;19219;44.500;11.188;2024-03-08T11:14:54;16.70;93.70
32865;DHT22;19219;44.500;11.188;2024-03-08T11:17:25;16.50;94.50
32865;DHT22;19219;44.500;11.188;2024-03-08T11:19:51;16.70;96.20
32865;DHT22;19219;44.500;11.188;2024-03-08T11:22:22;16.90;97.00
32865;DHT22;19219;44.500;11.188;2024-03-08T11:24:52;17.20;96.60
32865;DHT22;19219;44.500;11.188;2024-03-08T11:27:18;17.30;97.60
32865;DHT22;19219;44.500;11.188;2024-03-08T11:29:59;17.50;96.50
32865;DHT22;19219;44.500;11.188;2024-03-08T11:32:27;17.60;96.80
32865;DHT22;19219;44.500;11.188;2024-03-08T11:34:54;17.50;97.00
32865;DHT22;19219;44.500;11.188;2024-03-08T11:37:22;17.70;97.00
32865;DHT22;19219;44.500;11.188;2024-03-08T11:42:15;18.20;97.80
32865;DHT22;19219;44.500;11.188;2024-03-08T11:44:43;18.10;95.50
32865;DHT22;19219;44.500;11.188;2024-03-08T11:47:10;18.00;96.00
32865;DHT22;19219;44.500;11.188;2024-03-08T11:49:37;18.10;95.60
32865;DHT22;19219;44.500;11.188;2024-03-08T11:52:03;17.90;95.60
32865;DHT22;19219;44.500;11.188;2024-03-08T11:54:29;17.90;96.20
32865;DHT22;19219;44.500;11.188;2024-03-08T11:56:57;18.20;96.40
32865;DHT22;19219;44.500;11.188;2024-03-08T11:59:30;18.30;96.10
32865;DHT22;19219;44.500;11.188;2024-03-08T12:02:01;18.20;96.10
32865;DHT22;19219;44.500;11.188;2024-03-08T12:04:27;17.60;96.80
32865;DHT22;19219;44.500;11.188;2024-03-08T12:06:53;17.20;96.60
32865;DHT22;19219;44.500;11.188;2024-03-08T12:09:18;17.10;97.10
32865;DHT22;19219;44.500;11.188;2024-03-08T12:11:47;17.20;97.10
32865;DHT22;19219;44.500;11.188;2024-03-08T12:14:13;17.00;96.00
32865;DHT22;19219;44.500;11.188;2024-03-08T12:16:39;16.90;96.60
32865;DHT22;19219;44.500;11.188;2024-03-08T12:19:05;16.60;96.60
32865;DHT22;19219;44.500;11.188;2024-03-08T12:21:31;16.40;96.40
32865;DHT22;19219;44.500;11.188;2024-03-08T12:24:10;16.20;97.10
32865;DHT22;19219;44.500;11.188;2024-03-08T12:26:39;16.10;97.20
32865;DHT22;19219;44.500;11.188;2024-03-08T12:29:27;16.10;98.00
32865;DHT22;19219;44.500;11.188;2024-03-08T12:31:58;16.20;98.20
32865;DHT22;19219;44.500;11.188;2024-03-08T12:34:26;16.20;97.50
32865;DHT22;19219;44.500;11.188;2024-03-08T12:36:52;16.30;97.10
32865;DHT22;19219;44.500;11.188;2024-03-08T12:39:20;16.40;98.60
32865;DHT22;19219;44.500;11.188;2024-03-08T12:41:52;16.40;99.90
32865;DHT22;19219;44.500;11.188;2024-03-08T12:44:19;16.60;99.90
32865;DHT22;19219;44.500;11.188;2024-03-08T12:46:47;16.70;99.90
32865;DHT22;19219;44.500;11.188;2024-03-08T12:49:13;16.80;99.90
32865;DHT22;19219;44.500;11.188;2024-03-08T12:51:43;16.90;99.90
32865;DHT22;19219;44.500;11.188;2024-03-08T12:54:09;17.00;99.90
32865;DHT22;19219;44.500;11.188;2024-03-08T12:56:35;16.60;99.90
32865;DHT22;19219;44.500;11.188;2024-03-08T12:59:07;16.30;99.90
32865;DHT22;19219;44.500;11.188;2024-03-08T13:01:38;15.90;99.90
32865;DHT22;19219;44.500;11.188;2024-03-08T13:04:05;15.50;99.90
32865;DHT22;19219;44.500;11.188;2024-03-08T13:06:32;15.50;99.90
32865;DHT22;19219;44.500;11.188;2024-03-08T13:08:58;15.40;99.90
32865;DHT22;19219;44.500;11.188;2024-03-08T13:11:24;15.20;99.90
32865;DHT22;19219;44.500;11.188;2024-03-08T13:13:53;15.20;99.90
32865;DHT22;19219;44.500;11.188;2024-03-08T13:16:19;15.20;99.90
32865;DHT22;19219;44.500;11.188;2024-03-08T13:18:45;15.20;99.90
32865;DHT22;19219;44.500;11.188;2024-03-08T13:21:14;14.90;99.90
32865;DHT22;19219;44.500;11.188;2024-03-08T13:23:41;14.80;99.90
32865;DHT22;19219;44.500;11.188;2024-03-08T13:26:11;14.70;99.90
32865;DHT22;19219;44.500;11.188;2024-03-08T13:28:45;14.50;99.90
32865;DHT22;19219;44.500;11.188;2024-03-08T13:31:11;14.40;99.90
32865;DHT22;19219;44.500;11.188;2024-03-08T13:33:37;14.30;99.90
32865;DHT22;19219;44.500;11.188;2024-03-08T13:36:06;14.00;99.90
32865;DHT22;19219;44.500;11.188;2024-03-08T13:38:49;14.10;99.90
32865;DHT22;19219;44.500;11.188;2024-03-08T13:41:15;14.20;99.90
32865;DHT22;19219;44.500;11.188;2024-03-08T13:43:46;14.10;99.90
32865;DHT22;19219;44.500;11.188;2024-03-08T13:46:12;14.10;99.90
32865;DHT22;19219;44.500;11.188;2024-03-08T13:48:37;14.20;99.90
32865;DHT22;19219;44.500;11.188;2024-03-08T13:51:07;14.20;99.90
32865;DHT22;19219;44.500;11.188;2024-03-08T13:53:33;14.40;99.90
32865;DHT22;19219;44.500;11.188;2024-03-08T13:56:03;14.30;99.90
32865;DHT22;19219;44.500;11.188;2024-03-08T13:58:29;14.30;99.90
32865;DHT22;19219;44.500;11.188;2024-03-08T14:00:55;14.30;99.90
32865;DHT22;19219;44.500;11.188;2024-03-08T14:03:21;14.50;99.90
32865;DHT22;19219;44.500;11.188;2024-03-08T14:05:47;14.20;99.90
32865;DHT22;19219;44.500;11.188;2024-03-08T14:08:12;13.90;99.90
32865;DHT22;19219;44.500;11.188;2024-03-08T14:10:39;13.70;99.90
32865;DHT22;19219;44.500;11.188;2024-03-08T14:13:05;13.80;99.90
32865;DHT22;19219;44.500;11.188;2024-03-08T14:15:32;13.80;99.90
32865;DHT22;19219;44.500;11.188;2024-03-08T14:17:58;13.80;99.90
32865;DHT22;19219;44.500;11.188;2024-03-08T14:20:25;13.70;99.90
32865;DHT22;19219;44.500;11.188;2024-03-08T14:22:57;13.80;99.90
32865;DHT22;19219;44.500;11.188;2024-03-08T14:25:23;13.70;99.90
32865;DHT22;19219;44.500;11.188;2024-03-08T14:27:50;13.70;99.90
32865;DHT22;19219;44.500;11.188;2024-03-08T14:30:20;13.70;99.90
32865;DHT22;19219;44.500;11.188;2024-03-08T14:33:07;13.80;99.90
32865;DHT22;19219;44.500;11.188;2024-03-08T14:35:39;13.90;99.90
32865;DHT22;19219;44.500;11.188;2024-03-08T14:38:05;14.10;99.90
32865;DHT22;19219;44.500;11.188;2024-03-08T14:40:34;14.00;99.90
32865;DHT22;19219;44.500;11.188;2024-03-08T14:42:59;13.90;99.90
32865;DHT22;19219;44.500;11.188;2024-03-08T14:45:26;13.90;99.90
32865;DHT22;19219;44.500;11.188;2024-03-08T14:47:52;13.80;99.90
32865;DHT22;19219;44.500;11.188;2024-03-08T14:50:21;13.80;99.90
32865;DHT22;19219;44.500;11.188;2024-03-08T14:52:51;13.70;99.90
32865;DHT22;19219;44.500;11.188;2024-03-08T14:55:21;13.80;99.90
32865;DHT22;19219;44.500;11.188;2024-03-08T14:57:48;13.80;99.90
32865;DHT22;19219;44.500;11.188;2024-03-08T15:00:17;13.70;99.90
32865;DHT22;19219;44.500;11.188;2024-03-08T15:02:55;13.60;99.90
32865;DHT22;19219;44.500;11.188;2024-03-08T15:05:22;13.40;99.90
32865;DHT22;19219;44.500;11.188;2024-03-08T15:07:52;13.40;99.90
32865;DHT22;19219;44.500;11.188;2024-03-08T15:10:18;13.30;99.90
32865;DHT22;19219;44.500;11.188;2024-03-08T15:12:46;13.30;99.90
32865;DHT22;19219;44.500;11.188;2024-03-08T15:15:12;13.30;99.90
32865;DHT22;19219;44.500;11.188;2024-03-08T15:17:43;13.30;99.90
32865;DHT22;19219;44.500;11.188;2024-03-08T15:20:09;13.10;99.90
32865;DHT22;19219;44.500;11.188;2024-03-08T15:22:51;13.10;99.90
32865;DHT22;19219;44.500;11.188;2024-03-08T15:25:24;13.10;99.90
32865;DHT22;19219;44.500;11.188;2024-03-08T15:27:55;13.10;99.90
32865;DHT22;19219;44.500;11.188;2024-03-08T15:30:21;13.00;99.90